Tiempo atmosférico en la estación meteorológica de Pedrosa Del Príncipe, Burgos (771 m.)



Fecha
DESCASC
Temp. máxima en grados centígrados (hora)
DESCASC
Temp. mínima en grados centígrados (hora)
DESCASC
Temp. media en grados centígrados
DESCASC
Racha de viento máxima en m/sg (hora)
DESCASC
Velocidad máxima media en intervalos de 10 minutos(hora)
DESCASC
Precipitaciones diarias en mm
DESCASC
Precipitaciones de 00:00 a 06:00 en mm
DESCASC
Precipitaciones de 06:00 a 12:00 en mm
DESCASC
Precipitaciones de 12:00 a 18:00 en mm
DESCASC
Precipitaciones de 18:00 a 24:00 en mm
DESCASC
05-04-2020 18.5 (14:50) 9.1 (09:00) 13.8 10 (17:50) 5.28 (15:00) 4.8 0 0 0 4.8
04-04-2020 19.6 (17:20) -2.5 (07:50) 8.6 8.61 (15:10) 5.28 (20:40) 0 0 0 0 0
03-04-2020 14.8 (18:10) -1.7 (07:50) 6.6 5.56 (02:00) 3.33 (02:00) 0 0 0 0 0
02-04-2020 11.4 (18:20) 3.6 (00:00) 7.5 10.83 (18:10) 6.11 (19:00) 3.4 2.8 0.4 0.2 0
01-04-2020 13.4 (14:00) 3.4 (00:00) 8.4 7.78 (03:10) 5 (03:00) 4 1.6 0 0 2.4
31-03-2020 7.3 (17:10) -1.1 (-00:0) 3.1 13.06 (16:20) 8.33 (14:40) 1.4 0 0 0 1.4
30-03-2020 6.6 (14:50) -1 (-00:0) 2.8 12.5 (05:20) 6.94 (05:20) 0 0 0 0 0
29-03-2020 15.7 (15:10) -0.5 (-00:0) 7.6 13.61 (19:50) 8.06 (19:30) 0 0 0 0 0
28-03-2020 17 (16:00) -2.9 (-00:0) 7 4.72 (00:10) 3.06 (00:10) 0 0 0 0 0
27-03-2020 13.3 (16:50) -3.4 (-00:0) 5 10 (09:50) 5.83 (09:50) 0 0 0 0 0
26-03-2020 10.8 (15:00) -4 (-00:0) 3.4 12.22 (12:10) 6.94 (12:10) 0 0 0 0 0
25-03-2020 17.4 (15:20) -1.2 (-00:0) 8.1 8.33 (16:10) 4.44 (17:20) 0 0 0 0 0
24-03-2020 16.2 (15:40) 3.9 (00:00) 10.1 8.61 (16:50) 5.28 (16:50) 0.2 0 0.2 0 0
23-03-2020 15.6 (15:20) 2.2 (00:00) 8.9 9.44 (19:20) 6.11 (19:20) 0.4 0 0 0 0.4
22-03-2020 16.7 (16:00) 5.4 (23:59) 11.1 9.17 (16:50) 5.56 (16:50) 0.6 0 0 0 0.6
21-03-2020 16.5 (16:10) 3.7 (00:00) 10.1 7.78 (11:10) 4.72 (11:10) 0 0 0 0 0
20-03-2020 16.1 (16:40) 5.3 (00:00) 10.7 8.61 (01:00) 5.28 (01:00) 0 0 0 0 0
19-03-2020 17.7 (15:40) 5.1 (00:00) 11.4 7.22 (23:59) 4.17 (23:40) 0 0 0 0 0
18-03-2020 20.5 (16:30) 5.3 (00:00) 12.9 6.67 (18:50) 4.17 (19:00) 0 0 0 0 0
17-03-2020 11.2 (17:50) 5.3 (00:00) 8.3 13.89 (00:50) 8.06 (02:20) 0 0 0 0 0
16-03-2020 7.8 (14:10) 0.9 (00:00) 4.4 18.33 (15:20) 11.67 (15:30) 5.8 4.2 1.6 0 0
15-03-2020 19.1 (15:10) -1.9 (-00:0) 8.6 12.5 (23:50) 8.33 (23:50) 0 0 0 0 0
14-03-2020 17.8 (17:10) -2.9 (-00:0) 7.4 4.44 (14:10) 1.94 (14:10) 0 0 0 0 0
13-03-2020 12.7 (13:50) 1.1 (23:59) 6.9 12.22 (16:30) 7.5 (16:30) 0 0 0 0 0
12-03-2020 18 (12:40) 4.9 (00:00) 11.5 12.5 (19:40) 7.5 (17:50) 0 0 0 0 0
11-03-2020 22.8 (16:00) -0.3 (00:00) 11.2 6.11 (15:00) 3.89 (17:30) 0 0 0 0 0
10-03-2020 19.4 (15:40) 2 (00:00) 10.7 8.06 (17:40) 4.72 (16:00) 0 0 0 0 0
09-03-2020 14.1 (17:20) 0.3 (00:00) 7.2 4.72 (14:10) 2.78 (02:50) 0 0 0 0 0
08-03-2020 13.6 (16:10) 2.3 (00:00) 8 9.17 (16:30) 5.56 (14:20) 0 0 0 0 0

Gráficas

Temp. máximas Temp. mínimas Temp. medias Precipitaciones Rachas de viento máximas Velocidades máximas media en intervalos de 10 minutos

Datos horarios

Fecha y hora oficial Temperatura (ºC) Velocidad del viento (km/h) Dirección del viento Racha (km/h) Dirección de racha Precipitación (mm) Presión (hPa) Tendencia (hPa) Humedad (%)
2020-04-06 23:00:00 10.9 0 Calma 7 Sudoeste 0 -- -- 86
2020-04-06 22:00:00 11.3 5 Sudoeste 10 Sudoeste 0 -- -- 83
2020-04-06 21:00:00 12 0 Calma 9 Oeste 0 -- -- 84
2020-04-06 20:00:00 12.4 6 Oeste 17 Oeste 0 -- -- 82
2020-04-06 19:00:00 12.3 7 Sudoeste 27 Oeste 0.4 -- -- 84
2020-04-06 18:00:00 12.8 14 Sur 26 Sur 1.8 -- -- 82
2020-04-06 17:00:00 14.2 10 Oeste 26 Oeste 0 -- -- 70
2020-04-06 16:00:00 16.1 10 Sudoeste 22 Oeste 0 -- -- 65
2020-04-06 15:00:00 15.2 13 Sudoeste 26 Oeste 0 -- -- 69
2020-04-06 14:00:00 15 15 Oeste 28 Oeste 0 -- -- 72
2020-04-06 13:00:00 13.8 16 Sudoeste 30 Sudoeste 0 -- -- 79
2020-04-06 12:00:00 12.2 17 Sudoeste 35 Sudoeste 0.4 -- -- 88
2020-04-06 11:00:00 11.9 13 Sudoeste 27 Oeste 0 -- -- 92
2020-04-06 10:00:00 12 14 Sudoeste 27 Sudoeste 0.2 -- -- 90
2020-04-06 09:00:00 11.4 11 Sudoeste 25 Sur 0.4 -- -- 91
2020-04-06 08:00:00 11.4 11 Sur 25 Sur 0 -- -- 90
2020-04-06 07:00:00 11.4 11 Sur 23 Sur 0.4 -- -- 89
2020-04-06 06:00:00 11.7 9 Sur 22 Sur 0 -- -- 87
2020-04-06 05:00:00 11.1 4 Sudeste 12 Sur 0 -- -- 91
2020-04-06 04:00:00 11.1 5 Sudeste 12 Sudeste 0 -- -- 92
2020-04-06 03:00:00 11.1 5 Sudeste 14 Sur 0.2 -- -- 92
2020-04-06 02:00:00 11.1 10 Sur 16 Sur 0 -- -- 91
2020-04-06 01:00:00 11.4 7 Sur 15 Sur 2.4 -- -- 91
2020-04-06 00:00:00 11.2 3 Sudoeste 7 Sudoeste 1 -- -- 90
2020-04-05 23:00:00 11.4 0 Calma 6 Oeste 1.4 -- -- 89
2020-04-05 22:00:00 11.8 3 Oeste 10 Oeste 1.6 -- -- 90
2020-04-05 21:00:00 12.3 6 Oeste 11 Oeste 0.6 -- -- 88
2020-04-05 20:00:00 13.2 4 Sudoeste 21 Oeste 0.2 -- -- 81
2020-04-05 19:00:00 14.9 7 Sudoeste 26 Oeste 0 -- -- 74
2020-04-05 18:00:00 15.9 16 Oeste 36 Oeste 0 -- -- 66
2020-04-05 17:00:00 17.5 10 Sudoeste 23 Sudoeste 0 -- -- 53
2020-04-05 16:00:00 17.5 13 Sudoeste 29 Sudoeste 0 -- -- 50
2020-04-05 15:00:00 18.3 19 Sudoeste 31 Sudoeste 0 -- -- 47
2020-04-05 14:00:00 17.3 13 Sudoeste 26 Sudoeste 0 -- -- 50
2020-04-05 13:00:00 16.1 15 Sudoeste 26 Sudoeste 0 -- -- 54
2020-04-05 12:00:00 15.3 16 Sudoeste 30 Sudoeste 0 -- -- 56
2020-04-05 11:00:00 13.8 17 Sudoeste 26 Sudoeste 0 -- -- 62
2020-04-05 10:00:00 12.1 10 Sur 23 Sudoeste 0 -- -- 68
2020-04-05 09:00:00 9.1 11 Sur 19 Sudeste 0 -- -- 76
2020-04-05 08:00:00 9.5 3 Oeste 14 Sur 0 -- -- 75
2020-04-05 07:00:00 10.4 9 Sur 21 Sur 0 -- -- 69
2020-04-05 06:00:00 10.4 10 Sur 22 Sur 0 -- -- 68
2020-04-05 05:00:00 10 5 Sur 20 Sur 0 -- -- 68
2020-04-05 04:00:00 10 13 Sur 25 Sur 0 -- -- 67
2020-04-05 03:00:00 9.6 8 Sur 28 Sur 0 -- -- 67
2020-04-05 02:00:00 10.5 13 Sur 31 Sur 0 -- -- 64
2020-04-05 01:00:00 10.8 15 Sur 28 Sur 0 -- -- 60
2020-04-05 00:00:00 11.5 12 Sur 24 Sur 0 -- -- 57
2020-04-04 23:00:00 12.6 14 Sur 22 Sur 0 -- -- 53
2020-04-04 22:00:00 13 9 Sur 22 Sur 0 -- -- 51
2020-04-04 21:00:00 14.5 14 Sur 30 Sur 0 -- -- 48
2020-04-04 20:00:00 16.2 18 Sur 29 Sur 0 -- -- 42
2020-04-04 19:00:00 17.5 12 Sur 30 Sur 0 -- -- 36
2020-04-04 18:00:00 18.5 12 Sur 28 Sudoeste 0 -- -- 31
2020-04-04 17:00:00 19.4 12 Sur 27 Sudoeste 0 -- -- 34
2020-04-04 16:00:00 19.1 14 Sur 31 Sur 0 -- -- 36
2020-04-04 15:00:00 17.9 14 Sur 30 Sudeste 0 -- -- 36
2020-04-04 14:00:00 16.6 15 Sur 24 Sur 0 -- -- 35
2020-04-04 13:00:00 15.8 8 Sur 23 Sudeste 0 -- -- 43
2020-04-04 12:00:00 13 13 Sudeste 26 Sur 0 -- -- 53
2020-04-04 11:00:00 8.9 3 Norte 6 Nordeste 0 -- -- 68
2020-04-04 10:00:00 3.2 2 Norte 5 Norte 0 -- -- 89
2020-04-04 09:00:00 -1.3 2 Nordeste 5 Nordeste 0 -- -- 93
2020-04-04 08:00:00 -2.5 0 Calma 5 Este 0 -- -- 92
2020-04-04 07:00:00 -1.8 3 Nordeste 5 Nordeste 0 -- -- 91
2020-04-04 06:00:00 -1.4 0 Calma 8 Este 0 -- -- 92
2020-04-04 05:00:00 -1.7 2 Nordeste 5 Este 0 -- -- 91
2020-04-04 04:00:00 -1.1 2 Nordeste 4 Este 0 -- -- 90
2020-04-04 03:00:00 -0.3 0 Calma 6 Este 0 -- -- 88
2020-04-04 02:00:00 1.4 4 Este 12 Nordeste 0 -- -- 86
2020-04-04 01:00:00 0.8 7 Este 11 Nordeste 0 -- -- 89
2020-04-04 00:00:00 1.9 0 Calma 5 Este 0 -- -- 86
2020-04-03 23:00:00 3.5 4 Este 6 Este 0 -- -- 83
2020-04-03 22:00:00 6.1 0 Calma 8 Sudeste 0 -- -- 75
2020-04-03 21:00:00 10.4 2 Sudeste 8 Noroeste 0 -- -- 61
2020-04-03 20:00:00 14.3 3 Noroeste 7 Noroeste 0 -- -- 47
2020-04-03 19:00:00 14.7 3 Norte 10 Noroeste 0 -- -- 44
2020-04-03 18:00:00 14.7 5 Noroeste 10 Nordeste 0 -- -- 46
2020-04-03 17:00:00 13.7 3 Nordeste 12 Nordeste 0 -- -- 44
2020-04-03 16:00:00 13.2 5 Nordeste 12 Oeste 0 -- -- 50
2020-04-03 15:00:00 12.3 5 Noroeste 14 Norte 0 -- -- 55
2020-04-03 14:00:00 11.3 6 Noroeste 17 Este 0 -- -- 56
2020-04-03 13:00:00 9.7 6 Norte 18 Noroeste 0 -- -- 61
2020-04-03 12:00:00 8.4 5 Nordeste 16 Este 0 -- -- 66
2020-04-03 11:00:00 6.1 3 Este 12 Este 0 -- -- 76
2020-04-03 10:00:00 2.1 0 Calma 3 Sudoeste 0 -- -- 92
2020-04-03 09:00:00 -1.1 0 Calma 2 Sudoeste 0 -- -- 94
2020-04-03 08:00:00 -1.6 0 Calma 5 Nordeste 0 -- -- 92
2020-04-03 07:00:00 -1.3 3 Norte 10 Nordeste 0 -- -- 91
2020-04-03 06:00:00 -0.4 7 Nordeste 15 Nordeste 0 -- -- 89
2020-04-03 05:00:00 0 7 Nordeste 13 Nordeste 0 -- -- 90
2020-04-03 04:00:00 0.3 5 Norte 11 Nordeste 0 -- -- 88
2020-04-03 03:00:00 0.9 4 Nordeste 17 Nordeste 0 -- -- 87
2020-04-03 02:00:00 2.3 12 Este 20 Este 0 -- -- 84
2020-04-03 01:00:00 2.8 5 Este 18 Norte 0 -- -- 84
2020-04-03 00:00:00 3.6 13 Nordeste 29 Nordeste 0 -- -- 82
2020-04-02 23:00:00 4.2 17 Nordeste 25 Este 0 -- -- 82
2020-04-02 22:00:00 4.8 15 Este 28 Nordeste 0 -- -- 81
2020-04-02 21:00:00 5.9 13 Nordeste 31 Nordeste 0 -- -- 78
2020-04-02 20:00:00 8.7 17 Nordeste 37 Nordeste 0 -- -- 67
2020-04-02 19:00:00 10.8 22 Nordeste 39 Nordeste 0 -- -- 63
2020-04-02 18:00:00 10.4 19 Nordeste 35 Nordeste 0 -- -- 66
2020-04-02 17:00:00 11.1 19 Nordeste 35 Nordeste 0 -- -- 69
2020-04-02 16:00:00 11.1 19 Nordeste 36 Nordeste 0 -- -- 73
2020-04-02 15:00:00 9.3 15 Nordeste 33 Norte 0 -- -- 78
2020-04-02 14:00:00 10.6 18 Norte 33 Norte 0.2 -- -- 79
2020-04-02 13:00:00 9.6 16 Nordeste 31 Nordeste 0 -- -- 78
2020-04-02 12:00:00 9.8 15 Nordeste 28 Nordeste 0 -- -- 77
2020-04-02 11:00:00 8.5 13 Nordeste 25 Nordeste 0 -- -- 86
2020-04-02 10:00:00 7.6 10 Nordeste 19 Nordeste 0 -- -- 93
2020-04-02 09:00:00 6.3 5 Este 8 Este 0 -- -- 95
2020-04-02 08:00:00 6.1 4 Este 6 Este 0 -- -- 95
2020-04-02 07:00:00 6.1 4 Nordeste 11 Nordeste 0.4 -- -- 94
2020-04-02 06:00:00 6.2 6 Nordeste 12 Nordeste 0.6 -- -- 94
2020-04-02 05:00:00 6.3 7 Nordeste 14 Nordeste 1.8 -- -- 94
2020-04-02 04:00:00 6.4 3 Nordeste 10 Nordeste 0.2 -- -- 94
2020-04-02 03:00:00 6.6 5 Nordeste 10 Nordeste 0.2 -- -- 93
2020-04-02 02:00:00 6.8 8 Este 14 Nordeste 0 -- -- 93
2020-04-02 01:00:00 6.7 8 Este 14 Este 0 -- -- 93
2020-04-02 00:00:00 6.7 4 Este 10 Nordeste 0 -- -- 92
2020-04-01 23:00:00 6.9 2 Nordeste 5 Nordeste 0 -- -- 93
2020-04-01 22:00:00 7.1 0 Calma 6 Este 0.2 -- -- 91
2020-04-01 21:00:00 7.3 0 Calma 6 Oeste 0.4 -- -- 89
2020-04-01 20:00:00 7.8 6 Sudoeste 21 Sudoeste 1.8 -- -- 85
2020-04-01 19:00:00 11 10 Este 25 Nordeste 0 -- -- 73
2020-04-01 18:00:00 12 14 Este 24 Nordeste 0 -- -- 69
2020-04-01 17:00:00 12.2 10 Nordeste 23 Este 0 -- -- 69
2020-04-01 16:00:00 12.1 8 Nordeste 17 Nordeste 0 -- -- 68
2020-04-01 15:00:00 12.4 7 Este 14 Este 0 -- -- 65
2020-04-01 14:00:00 13.4 6 Este 18 Sudeste 0 -- -- 64
2020-04-01 13:00:00 10.7 9 Sudeste 19 Sudeste 0 -- -- 73
2020-04-01 12:00:00 9.1 10 Sudeste 26 Sudeste 0 -- -- 78
2020-04-01 11:00:00 8.3 15 Sudeste 25 Sudeste 0 -- -- 81
2020-04-01 10:00:00 7.6 5 Sudeste 16 Este 0 -- -- 87
2020-04-01 09:00:00 6 5 Sudeste 15 Sudeste 0 -- -- 89
2020-04-01 08:00:00 5.8 4 Este 15 Este 0 -- -- 90
2020-04-01 07:00:00 6 9 Sudeste 21 Sudeste 0 -- -- 90
2020-04-01 06:00:00 6 0 Calma 26 Sudeste 0 -- -- 89
2020-04-01 05:00:00 6.3 13 Sudeste 24 Sudeste 0.4 -- -- 90
2020-04-01 04:00:00 5.8 10 Este 28 Este 0 -- -- 89
2020-04-01 03:00:00 5.3 18 Este 26 Este 0.2 -- -- 90
2020-04-01 02:00:00 5.2 12 Este 27 Sudeste 1 -- -- 90
2020-04-01 01:00:00 5 11 Este 24 Este 0 -- -- 91
2020-04-01 00:00:00 3.4 10 Nordeste 20 Nordeste 0 -- -- 92
2020-03-31 23:00:00 3.6 9 Nordeste 22 Nordeste 0 -- -- 90
2020-03-31 22:00:00 4.4 13 Este 33 Este 0 -- -- 88
2020-03-31 21:00:00 5.1 13 Este 31 Este 0.2 -- -- 89
2020-03-31 20:00:00 5.5 17 Este 30 Este 1 -- -- 89
2020-03-31 19:00:00 6.7 14 Este 38 Este 0.2 -- -- 85
2020-03-31 18:00:00 6.6 18 Este 34 Este 0 -- -- 82
2020-03-31 17:00:00 6.7 22 Este 47 Este 0 -- -- 85
2020-03-31 16:00:00 6.2 24 Este 42 Este 0 -- -- 82
2020-03-31 15:00:00 5 26 Este 44 Este 0 -- -- 84
2020-03-31 14:00:00 5.7 25 Nordeste 45 Este 0 -- -- 79
2020-03-31 13:00:00 4.8 25 Nordeste 39 Nordeste 0 -- -- 74
2020-03-31 12:00:00 3.6 24 Nordeste 40 Este 0 -- -- 75
2020-03-31 11:00:00 2.1 24 Nordeste 43 Este 0 -- -- 77
2020-03-31 10:00:00 0.9 23 Este 42 Este 0 -- -- 80
2020-03-31 09:00:00 -0.2 25 Este 43 Este 0 -- -- 80
2020-03-31 08:00:00 -0.4 18 Nordeste 30 Nordeste 0 -- -- 80
2020-03-31 07:00:00 -0.7 14 Nordeste 26 Este 0 -- -- 81
2020-03-31 06:00:00 -0.6 9 Nordeste 26 Nordeste 0 -- -- 82
2020-03-31 05:00:00 -0.3 14 Nordeste 25 Nordeste 0 -- -- 80
2020-03-31 04:00:00 -0.8 8 Nordeste 15 Nordeste 0 -- -- 83
2020-03-31 03:00:00 -0.3 9 Nordeste 22 Este 0 -- -- 80
2020-03-31 02:00:00 -0.2 8 Nordeste 14 Nordeste 0 -- -- 81
2020-03-31 01:00:00 -0.7 7 Este 13 Este 0 -- -- 81
2020-03-31 00:00:00 -1 8 Este 16 Nordeste 0 -- -- 80
2020-03-30 23:00:00 -0.4 8 Nordeste 22 Nordeste 0 -- -- 76
2020-03-30 22:00:00 0 11 Nordeste 24 Nordeste 0 -- -- 73
2020-03-30 21:00:00 1.1 12 Nordeste 33 Nordeste 0 -- -- 69
2020-03-30 20:00:00 2.5 21 Nordeste 39 Nordeste 0 -- -- 61
2020-03-30 19:00:00 3.9 23 Nordeste 41 Nordeste 0 -- -- 55
2020-03-30 18:00:00 5.3 21 Nordeste 41 Nordeste 0 -- -- 52
2020-03-30 17:00:00 5.8 20 Nordeste 40 Nordeste 0 -- -- 48
2020-03-30 16:00:00 5.8 21 Nordeste 36 Nordeste 0 -- -- 56
2020-03-30 15:00:00 6.2 17 Nordeste 38 Nordeste 0 -- -- 49
2020-03-30 14:00:00 5.4 20 Nordeste 40 Nordeste 0 -- -- 53
2020-03-30 13:00:00 4.2 18 Nordeste 34 Nordeste 0 -- -- 53
2020-03-30 12:00:00 2.9 18 Nordeste 40 Nordeste 0 -- -- 57
2020-03-30 11:00:00 2.3 23 Nordeste 39 Nordeste 0 -- -- 64
2020-03-30 10:00:00 1.5 19 Nordeste 33 Nordeste 0 -- -- 70
2020-03-30 09:00:00 1.1 13 Nordeste 31 Nordeste 0 -- -- 72
2020-03-30 08:00:00 1.3 14 Nordeste 33 Nordeste 0 -- -- 75
2020-03-30 07:00:00 1.3 17 Nordeste 32 Nordeste 0 -- -- 71
2020-03-30 06:00:00 1.7 22 Nordeste 45 Nordeste 0 -- -- 70
2020-03-30 05:00:00 2.3 22 Nordeste 43 Nordeste 0 -- -- 76
2020-03-30 04:00:00 2.9 23 Nordeste 41 Nordeste 0 -- -- 79
2020-03-30 03:00:00 3.4 17 Nordeste 37 Nordeste 0 -- -- 76
2020-03-30 02:00:00 3.7 20 Nordeste 35 Nordeste 0 -- -- 79
2020-03-30 01:00:00 4.2 24 Nordeste 41 Nordeste 0 -- -- 81
2020-03-30 00:00:00 5.1 20 Nordeste 36 Nordeste 0 -- -- 80
2020-03-29 23:00:00 6.2 14 Nordeste 34 Este 0 -- -- 79
2020-03-29 22:00:00 6.7 15 Nordeste 35 Nordeste 0 -- -- 75
2020-03-29 21:00:00 7.1 13 Nordeste 42 Nordeste 0 -- -- 73
2020-03-29 20:00:00 8 20 Nordeste 49 Nordeste 0 -- -- 70
2020-03-29 19:00:00 11.9 26 Nordeste 44 Nordeste 0 -- -- 54
2020-03-29 18:00:00 14.1 23 Nordeste 38 Nordeste 0 -- -- 46
2020-03-29 17:00:00 15.6 19 Nordeste 35 Nordeste 0 -- -- 42
2020-03-29 16:00:00 15.6 13 Nordeste 31 Nordeste 0 -- -- 42
2020-03-29 15:00:00 15.5 12 Nordeste 30 Nordeste 0 -- -- 40
2020-03-29 14:00:00 14.6 12 Nordeste 24 Nordeste 0 -- -- 43
2020-03-29 13:00:00 12.8 13 Nordeste 23 Nordeste 0 -- -- 46
2020-03-29 12:00:00 11.2 15 Este 24 Este 0 -- -- 51
2020-03-29 11:00:00 8.6 5 Nordeste 11 Nordeste 0 -- -- 65
2020-03-29 10:00:00 4 0 Calma 3 Noroeste 0 -- -- 81
2020-03-29 09:00:00 -0.1 0 Calma 3 Norte 0 -- -- 90
2020-03-29 08:00:00 -0.4 0 Calma 5 Oeste 0 -- -- 90
2020-03-29 07:00:00 0.2 2 Nordeste 12 Nordeste 0 -- -- 89
2020-03-29 06:00:00 0.2 3 Este 5 Este 0 -- -- 89
2020-03-29 05:00:00 0.8 4 Nordeste 9 Nordeste 0 -- -- 89
2020-03-29 03:00:00 2.3 7 Nordeste 11 Nordeste 0 -- -- 89
2020-03-29 01:00:00 2.4 2 Nordeste 5 Nordeste 0 -- -- 86
2020-03-29 00:00:00 3.1 2 Norte 6 Nordeste 0 -- -- 81
2020-03-28 23:00:00 4.4 0 Calma 6 Noroeste 0 -- -- 79
2020-03-28 22:00:00 5.9 4 Este 13 Este 0 -- -- 69
2020-03-28 21:00:00 6.3 7 Este 12 Este 0 -- -- 67
2020-03-28 20:00:00 10.3 0 Calma 4 Sudeste 0 -- -- 54
2020-03-28 19:00:00 15.4 2 Oeste 9 Nordeste 0 -- -- 35
2020-03-28 18:00:00 16 4 Nordeste 9 Nordeste 0 -- -- 35
2020-03-28 17:00:00 16.5 4 Norte 13 Este 0 -- -- 31
2020-03-28 16:00:00 17 4 Nordeste 15 Este 0 -- -- 32
2020-03-28 15:00:00 15.6 4 Nordeste 12 Este 0 -- -- 33
2020-03-28 14:00:00 14.9 5 Este 13 Oeste 0 -- -- 34
2020-03-28 13:00:00 13.7 3 Norte 11 Este 0 -- -- 36
2020-03-28 12:00:00 12.9 4 Sur 10 Oeste 0 -- -- 38
2020-03-28 11:00:00 10.4 3 Sur 6 Este 0 -- -- 52
2020-03-28 10:00:00 6.8 3 Nordeste 6 Este 0 -- -- 66
2020-03-28 09:00:00 1.7 2 Este 5 Este 0 -- -- 89
2020-03-28 08:00:00 -2.6 0 Calma 2 Este 0 -- -- 92
2020-03-28 07:00:00 -2.9 0 Calma 4 Nordeste 0 -- -- 91
2020-03-28 06:00:00 -2.5 0 Calma 3 Nordeste 0 -- -- 90
2020-03-28 05:00:00 -2.1 0 Calma 3 Sudeste 0 -- -- 90
2020-03-28 04:00:00 -1.8 0 Calma 2 Noroeste 0 -- -- 87
2020-03-28 03:00:00 -1 0 Calma 3 Norte 0 -- -- 84
2020-03-28 02:00:00 0.6 0 Calma 4 Sudeste 0 -- -- 78
2020-03-28 01:00:00 2.6 3 Este 17 Este 0 -- -- 75
2020-03-28 00:00:00 3.8 8 Nordeste 14 Este 0 -- -- 70
2020-03-27 23:00:00 5 11 Este 22 Este 0 -- -- 61
2020-03-27 22:00:00 4.2 4 Nordeste 11 Este 0 -- -- 64
2020-03-27 21:00:00 4.5 5 Este 15 Nordeste 0 -- -- 63
2020-03-27 20:00:00 6 4 Nordeste 13 Este 0 -- -- 58
2020-03-27 19:00:00 10 10 Nordeste 16 Este 0 -- -- 46
2020-03-27 18:00:00 12.3 9 Este 20 Este 0 -- -- 37
2020-03-27 17:00:00 13 5 Nordeste 16 Este 0 -- -- 34
2020-03-27 16:00:00 12.6 11 Nordeste 24 Este 0 -- -- 35
2020-03-27 15:00:00 12.1 10 Este 29 Este 0 -- -- 40
2020-03-27 14:00:00 11 11 Este 33 Sudeste 0 -- -- 40
2020-03-27 13:00:00 10 12 Nordeste 28 Nordeste 0 -- -- 43
2020-03-27 12:00:00 8.5 14 Este 26 Este 0 -- -- 48
2020-03-27 11:00:00 7 14 Nordeste 31 Este 0 -- -- 54
2020-03-27 10:00:00 4.8 20 Este 36 Este 0 -- -- 65
2020-03-27 09:00:00 1.1 8 Nordeste 19 Nordeste 0 -- -- 83
2020-03-27 08:00:00 -2.6 6 Este 12 Nordeste 0 -- -- 89
2020-03-27 07:00:00 -3.1 4 Nordeste 16 Este 0 -- -- 87
2020-03-27 06:00:00 -2.6 5 Este 18 Este 0 -- -- 86
2020-03-27 05:00:00 -2.9 6 Nordeste 12 Nordeste 0 -- -- 85
2020-03-27 04:00:00 -1.9 0 Calma 5 Nordeste 0 -- -- 83
2020-03-27 03:00:00 -1.3 2 Este 6 Nordeste 0 -- -- 81
2020-03-27 02:00:00 -0.8 0 Calma 6 Este 0 -- -- 79
2020-03-27 01:00:00 0.4 3 Sudeste 18 Este 0 -- -- 77
2020-03-27 00:00:00 1.6 13 Nordeste 35 Este 0 -- -- 73
2020-03-26 23:00:00 2.5 15 Nordeste 30 Este 0 -- -- 73
2020-03-26 22:00:00 3.4 14 Nordeste 36 Nordeste 0 -- -- 70
2020-03-26 21:00:00 4.7 12 Nordeste 27 Nordeste 0 -- -- 72
2020-03-26 20:00:00 5.5 21 Nordeste 36 Nordeste 0 -- -- 67
2020-03-26 19:00:00 7.5 14 Nordeste 31 Nordeste 0 -- -- 56
2020-03-26 18:00:00 9.2 18 Nordeste 32 Nordeste 0 -- -- 48
2020-03-26 17:00:00 9.7 19 Nordeste 36 Nordeste 0 -- -- 51
2020-03-26 16:00:00 10.4 20 Nordeste 37 Nordeste 0 -- -- 51
2020-03-26 15:00:00 10.8 20 Nordeste 41 Nordeste 0 -- -- 47
2020-03-26 14:00:00 10.6 19 Nordeste 39 Nordeste 0 -- -- 49
2020-03-26 13:00:00 9.8 24 Nordeste 44 Nordeste 0 -- -- 51
2020-03-26 12:00:00 9.7 22 Nordeste 40 Nordeste 0 -- -- 53
2020-03-26 11:00:00 8.3 22 Nordeste 40 Nordeste 0 -- -- 57
2020-03-26 10:00:00 5 3 Noroeste 8 Sudoeste 0 -- -- 69
2020-03-26 09:00:00 1 0 Calma 5 Este 0 -- -- 88
2020-03-26 08:00:00 -3.7 2 Este 4 Este 0 -- -- 90
2020-03-26 07:00:00 -3.5 0 Calma 2 Noroeste 0 -- -- 86
2020-03-26 06:00:00 -1.9 0 Calma 4 Sur 0 -- -- 81
2020-03-26 05:00:00 -1.5 3 Nordeste 15 Nordeste 0 -- -- 80
2020-03-26 04:00:00 0.3 8 Este 14 Nordeste 0 -- -- 69
2020-03-26 03:00:00 0.7 4 Nordeste 20 Este 0 -- -- 79
2020-03-26 02:00:00 1.4 9 Este 16 Este 0 -- -- 83
2020-03-26 01:00:00 1.8 5 Este 17 Nordeste 0 -- -- 85
2020-03-26 00:00:00 1.5 4 Nordeste 9 Nordeste 0 -- -- 79
2020-03-25 23:00:00 2.5 4 Nordeste 15 Nordeste 0 -- -- 70
2020-03-25 22:00:00 3.6 6 Nordeste 13 Nordeste 0 -- -- 68
2020-03-25 21:00:00 5.1 6 Nordeste 12 Nordeste 0 -- -- 62
2020-03-25 20:00:00 7.7 8 Nordeste 18 Nordeste 0 -- -- 54
2020-03-25 19:00:00 12 10 Nordeste 28 Nordeste 0 -- -- 38
2020-03-25 18:00:00 15.1 11 Nordeste 28 Nordeste 0 -- -- 33
2020-03-25 17:00:00 16.4 13 Nordeste 30 Nordeste 0 -- -- 37
2020-03-25 16:00:00 17.1 13 Nordeste 30 Nordeste 0 -- -- 31
2020-03-25 15:00:00 17.2 7 Noroeste 18 Noroeste 0 -- -- 32
2020-03-25 14:00:00 16.1 9 Nordeste 21 Norte 0 -- -- 40
2020-03-25 13:00:00 15 6 Este 19 Nordeste 0 -- -- 44
2020-03-25 12:00:00 13.6 8 Sudeste 14 Este 0 -- -- 59
2020-03-25 11:00:00 11.3 3 Sur 6 Sudoeste 0 -- -- 70
2020-03-25 10:00:00 7.9 2 Sudoeste 4 Nordeste 0 -- -- 80
2020-03-25 09:00:00 2.9 3 Este 5 Este 0 -- -- 96
2020-03-25 08:00:00 -0.8 2 Este 4 Nordeste 0 -- -- 94
2020-03-25 07:00:00 -1.1 2 Este 4 Este 0 -- -- 93
2020-03-25 06:00:00 -0.9 0 Calma 6 Este 0 -- -- 92
2020-03-25 05:00:00 0 0 Calma 3 Sudeste 0 -- -- 92
2020-03-25 04:00:00 0.1 0 Calma 4 Este 0 -- -- 90
2020-03-25 03:00:00 1 0 Calma 5 Este 0 -- -- 89
2020-03-25 02:00:00 2.7 0 Calma 3 Noroeste 0 -- -- 88
2020-03-25 01:00:00 4.1 0 Calma 10 Nordeste 0 -- -- 86
2020-03-25 00:00:00 5.5 4 Sudeste 9 Nordeste 0 -- -- 80
2020-03-24 23:00:00 6.5 2 Sudeste 12 Nordeste 0 -- -- 79
2020-03-24 22:00:00 5.8 4 Nordeste 9 Nordeste 0 -- -- 81
2020-03-24 21:00:00 7.6 5 Este 12 Este 0 -- -- 76
2020-03-24 20:00:00 9.6 5 Nordeste 25 Nordeste 0 -- -- 67
2020-03-24 19:00:00 12.4 14 Nordeste 26 Este 0 -- -- 58
2020-03-24 18:00:00 14.3 16 Nordeste 30 Este 0 -- -- 54
2020-03-24 17:00:00 15.3 15 Este 31 Este 0 -- -- 53
2020-03-24 16:00:00 15 14 Este 27 Este 0 -- -- 55
2020-03-24 15:00:00 15.3 9 Nordeste 20 Nordeste 0 -- -- 52
2020-03-24 14:00:00 14.9 9 Nordeste 18 Este 0 -- -- 54
2020-03-24 13:00:00 15 9 Nordeste 22 Este 0 -- -- 55
2020-03-24 12:00:00 13.7 9 Este 23 Este 0 -- -- 56
2020-03-24 11:00:00 12.2 12 Nordeste 21 Este 0.2 -- -- 74
2020-03-24 10:00:00 10.2 12 Nordeste 26 Este 0 -- -- 81
2020-03-24 09:00:00 7.8 12 Este 20 Este 0 -- -- 94
2020-03-24 08:00:00 4.5 6 Este 14 Este 0 -- -- 95
2020-03-24 07:00:00 4.2 7 Este 18 Este 0 -- -- 94
2020-03-24 06:00:00 4.5 11 Este 20 Este 0 -- -- 95
2020-03-24 05:00:00 4.4 9 Nordeste 21 Este 0 -- -- 93
2020-03-24 04:00:00 4.5 8 Nordeste 18 Este 0 -- -- 94
2020-03-24 03:00:00 5.1 11 Este 17 Este 0 -- -- 94
2020-03-24 02:00:00 4.5 9 Nordeste 20 Nordeste 0 -- -- 92
2020-03-24 01:00:00 5.9 9 Nordeste 19 Nordeste 0 -- -- 92
2020-03-24 00:00:00 6.4 11 Este 21 Este 0 -- -- 92
2020-03-23 23:00:00 5.8 5 Este 13 Este 0 -- -- 89
2020-03-23 22:00:00 7.5 8 Este 13 Este 0 -- -- 87
2020-03-23 21:00:00 8.2 10 Este 27 Este 0 -- -- 85
2020-03-23 20:00:00 9.8 17 Este 34 Este 0.2 -- -- 78
2020-03-23 19:00:00 11.6 11 Nordeste 23 Este 0.2 -- -- 73
2020-03-23 18:00:00 13.1 10 Nordeste 27 Este 0 -- -- 64
2020-03-23 17:00:00 13.9 17 Este 31 Este 0 -- -- 57
2020-03-23 16:00:00 14.8 14 Este 27 Este 0 -- -- 53
2020-03-23 15:00:00 15.5 10 Este 23 Este 0 -- -- 52
2020-03-23 14:00:00 14.2 9 Este 23 Este 0 -- -- 59
2020-03-23 13:00:00 13.6 13 Este 25 Nordeste 0 -- -- 58
2020-03-23 12:00:00 13.3 12 Este 23 Este 0 -- -- 62
2020-03-23 11:00:00 11.8 15 Nordeste 25 Este 0 -- -- 71
2020-03-23 10:00:00 9.2 11 Nordeste 22 Nordeste 0 -- -- 82
2020-03-23 09:00:00 6.8 4 Nordeste 9 Este 0 -- -- 95
2020-03-23 08:00:00 4.1 4 Norte 12 Este 0 -- -- 94
2020-03-23 07:00:00 3 5 Nordeste 14 Este 0 -- -- 93
2020-03-23 06:00:00 2.4 5 Nordeste 13 Este 0 -- -- 94
2020-03-23 05:00:00 3.3 8 Este 13 Este 0 -- -- 94
2020-03-23 04:00:00 3.1 7 Este 14 Este 0 -- -- 94
2020-03-23 03:00:00 3.1 5 Este 10 Nordeste 0 -- -- 91
2020-03-23 02:00:00 4.3 0 Calma 9 Este 0 -- -- 89
2020-03-23 01:00:00 5.2 8 Este 13 Este 0 -- -- 91
2020-03-23 00:00:00 5.4 0 Calma 8 Este 0 -- -- 88
2020-03-22 23:00:00 6.7 5 Este 13 Este 0 -- -- 87
2020-03-22 22:00:00 7.1 9 Este 19 Nordeste 0 -- -- 87
2020-03-22 21:00:00 9 10 Nordeste 17 Nordeste 0 -- -- 82
2020-03-22 20:00:00 10.3 5 Este 14 Sudeste 0.6 -- -- 78
2020-03-22 19:00:00 11.9 3 Este 23 Sudeste 0 -- -- 63
2020-03-22 18:00:00 13.2 12 Sur 32 Este 0 -- -- 59
2020-03-22 17:00:00 16.2 16 Nordeste 33 Este 0 -- -- 48
2020-03-22 16:00:00 16.7 15 Nordeste 31 Nordeste 0 -- -- 47
2020-03-22 15:00:00 16.2 18 Nordeste 29 Este 0 -- -- 48
2020-03-22 14:00:00 15.1 13 Nordeste 27 Nordeste 0 -- -- 57
2020-03-22 13:00:00 15.4 14 Este 28 Nordeste 0 -- -- 56
2020-03-22 12:00:00 13.9 12 Este 22 Este 0 -- -- 64
2020-03-22 11:00:00 11.7 9 Nordeste 18 Este 0 -- -- 72
2020-03-22 10:00:00 10.4 7 Nordeste 13 Nordeste 0 -- -- 76
2020-03-22 09:00:00 8.3 3 Nordeste 8 Este 0 -- -- 90
2020-03-22 08:00:00 6.8 3 Este 4 Este 0 -- -- 90
2020-03-22 07:00:00 7.1 2 Este 5 Nordeste 0 -- -- 89
2020-03-22 06:00:00 7.8 3 Nordeste 6 Este 0 -- -- 87
2020-03-22 05:00:00 7.8 0 Calma 3 Noroeste 0 -- -- 86
2020-03-22 04:00:00 7.8 2 Sudoeste 8 Oeste 0 -- -- 84
2020-03-22 03:00:00 8 7 Sudoeste 10 Sudoeste 0 -- -- 85
2020-03-22 02:00:00 8.2 5 Sudoeste 9 Sudoeste 0 -- -- 85
2020-03-22 01:00:00 8.8 4 Sudoeste 8 Sudoeste 0 -- -- 81
2020-03-22 00:00:00 8.7 0 Calma 9 Sudoeste 0 -- -- 88
2020-03-21 23:00:00 9 2 Oeste 8 Sur 0 -- -- 85
2020-03-21 22:00:00 9.9 0 Calma 7 Sudeste 0 -- -- 80
2020-03-21 21:00:00 10.9 5 Sur 19 Sudeste 0 -- -- 75
2020-03-21 20:00:00 11.6 9 Sudeste 21 Sudeste 0 -- -- 67
2020-03-21 19:00:00 13.4 7 Sudeste 15 Este 0 -- -- 60
2020-03-21 18:00:00 14.7 9 Sudeste 18 Este 0 -- -- 55
2020-03-21 17:00:00 15.9 11 Sudeste 23 Sudeste 0 -- -- 51
2020-03-21 16:00:00 16.3 13 Sudeste 26 Sudeste 0 -- -- 51
2020-03-21 15:00:00 16.2 11 Sudeste 24 Este 0 -- -- 54
2020-03-21 14:00:00 14.2 14 Sudeste 27 Sudeste 0 -- -- 56
2020-03-21 13:00:00 14.4 11 Sudeste 21 Este 0 -- -- 60
2020-03-21 12:00:00 13 10 Este 28 Este 0 -- -- 66
2020-03-21 11:00:00 11.4 15 Nordeste 25 Nordeste 0 -- -- 76
2020-03-21 10:00:00 9.9 11 Este 21 Este 0 -- -- 82
2020-03-21 09:00:00 5.6 3 Sudoeste 7 Sur 0 -- -- 93
2020-03-21 08:00:00 4.4 3 Este 7 Este 0 -- -- 93
2020-03-21 07:00:00 3.8 2 Oeste 11 Este 0 -- -- 92
2020-03-21 06:00:00 4.6 9 Este 17 Este 0 -- -- 91
2020-03-21 05:00:00 5.4 2 Nordeste 15 Este 0 -- -- 88
2020-03-21 04:00:00 7.4 6 Este 18 Este 0 -- -- 87
2020-03-21 03:00:00 8 5 Sudeste 21 Sudeste 0 -- -- 83
2020-03-21 02:00:00 5.2 0 Calma 5 Nordeste 0 -- -- 87
2020-03-21 01:00:00 6.5 0 Calma 5 Este 0 -- -- 84
2020-03-21 00:00:00 8.1 4 Este 12 Sudeste 0 -- -- 80
2020-03-20 23:00:00 9.4 7 Sudeste 19 Sudeste 0 -- -- 77
2020-03-20 22:00:00 10.1 9 Sur 24 Sudeste 0 -- -- 74
2020-03-20 21:00:00 10.9 12 Sudeste 28 Sudeste 0 -- -- 73
2020-03-20 20:00:00 12.3 16 Sudeste 30 Sudeste 0 -- -- 71
2020-03-20 19:00:00 13.7 9 Sudeste 20 Sudeste 0 -- -- 63
2020-03-20 18:00:00 14.6 8 Este 19 Este 0 -- -- 64
2020-03-20 17:00:00 15.8 6 Este 18 Este 0 -- -- 58
2020-03-20 16:00:00 15.8 9 Este 18 Sudeste 0 -- -- 58
2020-03-20 15:00:00 15.2 10 Sudeste 19 Sudeste 0 -- -- 59
2020-03-20 14:00:00 14.4 9 Sudeste 23 Sudeste 0 -- -- 61
2020-03-20 13:00:00 14.8 14 Sudeste 27 Sudeste 0 -- -- 60
2020-03-20 12:00:00 12.9 12 Sudeste 22 Sudeste 0 -- -- 66
2020-03-20 11:00:00 11.3 12 Sudeste 26 Sudeste 0 -- -- 72
2020-03-20 10:00:00 9.6 10 Sudeste 20 Sudeste 0 -- -- 79
2020-03-20 09:00:00 7.1 5 Este 13 Nordeste 0 -- -- 90
2020-03-20 08:00:00 5.4 6 Nordeste 12 Nordeste 0 -- -- 89
2020-03-20 07:00:00 6.6 3 Este 10 Nordeste 0 -- -- 84
2020-03-20 06:00:00 7.1 3 Nordeste 10 Este 0 -- -- 82
2020-03-20 05:00:00 8.1 4 Sudeste 17 Sudeste 0 -- -- 80
2020-03-20 04:00:00 8 6 Sudeste 15 Sudeste 0 -- -- 79
2020-03-20 03:00:00 8.5 5 Nordeste 13 Sur 0 -- -- 76
2020-03-20 02:00:00 9.5 10 Sudeste 30 Sudeste 0 -- -- 71
2020-03-20 01:00:00 10.1 19 Sudeste 31 Sudeste 0 -- -- 66
2020-03-20 00:00:00 10.7 15 Sudeste 26 Sudeste 0 -- -- 62
2020-03-19 23:00:00 10 11 Sudeste 21 Este 0 -- -- 63
2020-03-19 22:00:00 9.3 8 Sudeste 13 Sudeste 0 -- -- 75
2020-03-19 21:00:00 10.1 6 Este 11 Nordeste 0 -- -- 85
2020-03-19 20:00:00 11.4 4 Este 8 Nordeste 0 -- -- 77
2020-03-19 19:00:00 13.8 3 Este 9 Sudeste 0 -- -- 53
2020-03-19 18:00:00 15.5 6 Sur 14 Sudeste 0 -- -- 41
2020-03-19 17:00:00 17.2 10 Sur 16 Sur 0 -- -- 33
2020-03-19 16:00:00 17.3 8 Sudeste 18 Sudeste 0 -- -- 33
2020-03-19 15:00:00 17.3 10 Sudeste 22 Sudeste 0 -- -- 37
2020-03-19 14:00:00 16.8 10 Sudeste 18 Sudeste 0 -- -- 37
2020-03-19 13:00:00 17.4 9 Sudeste 17 Sudeste 0 -- -- 38
2020-03-19 12:00:00 15.3 5 Sudeste 12 Sur 0 -- -- 56
2020-03-19 11:00:00 12.9 2 Noroeste 6 Este 0 -- -- 75
2020-03-19 10:00:00 10.1 4 Este 12 Nordeste 0 -- -- 86
2020-03-19 09:00:00 6.7 9 Este 13 Nordeste 0 -- -- 95
2020-03-19 08:00:00 5.2 0 Calma 5 Oeste 0 -- -- 93
2020-03-19 07:00:00 5.7 0 Calma 8 Este 0 -- -- 93
2020-03-19 06:00:00 6.3 5 Este 10 Este 0 -- -- 94
2020-03-19 05:00:00 6.2 6 Este 12 Este 0 -- -- 92
2020-03-19 04:00:00 7.2 7 Este 10 Este 0 -- -- 91
2020-03-19 03:00:00 7.9 7 Este 10 Este 0 -- -- 90
2020-03-19 02:00:00 7.7 6 Este 8 Nordeste 0 -- -- 89
2020-03-19 01:00:00 9.1 5 Este 9 Este 0 -- -- 87
2020-03-19 00:00:00 9.2 5 Nordeste 10 Nordeste 0 -- -- 86
2020-03-18 23:00:00 10.5 3 Este 12 Nordeste 0 -- -- 84
2020-03-18 22:00:00 11.5 8 Nordeste 15 Nordeste 0 -- -- 81
2020-03-18 21:00:00 13 8 Nordeste 17 Nordeste 0 -- -- 76
2020-03-18 20:00:00 14.1 10 Nordeste 23 Este 0 -- -- 76
2020-03-18 19:00:00 16.7 15 Este 24 Este 0 -- -- 67
2020-03-18 18:00:00 19.8 5 Sudeste 17 Sudeste 0 -- -- 46
2020-03-18 17:00:00 20.4 9 Sudeste 18 Sudeste 0 -- -- 46
2020-03-18 16:00:00 20.3 7 Sudeste 16 Este 0 -- -- 50
2020-03-18 15:00:00 19.2 8 Sur 16 Sur 0 -- -- 55
2020-03-18 14:00:00 17.9 6 Sudeste 15 Sudeste 0 -- -- 59
2020-03-18 13:00:00 15.3 6 Este 16 Este 0 -- -- 63
2020-03-18 12:00:00 12 6 Nordeste 13 Nordeste 0 -- -- 82
2020-03-18 11:00:00 9.1 6 Nordeste 14 Este 0 -- -- 94
2020-03-18 10:00:00 7 6 Nordeste 14 Este 0 -- -- 97
2020-03-18 09:00:00 6.2 9 Nordeste 17 Nordeste 0 -- -- 97
2020-03-18 08:00:00 6.1 10 Este 22 Este 0 -- -- 96
2020-03-18 07:00:00 6.4 10 Nordeste 16 Nordeste 0 -- -- 96
2020-03-18 06:00:00 6.2 10 Este 19 Este 0 -- -- 96
2020-03-18 05:00:00 6 13 Este 21 Este 0 -- -- 96
2020-03-18 04:00:00 5.8 10 Este 18 Este 0 -- -- 96
2020-03-18 03:00:00 5.8 10 Este 15 Este 0 -- -- 95
2020-03-18 02:00:00 5.9 6 Este 13 Este 0 -- -- 92
2020-03-18 01:00:00 6.6 6 Nordeste 10 Este 0 -- -- 91
2020-03-18 00:00:00 7.7 8 Este 14 Nordeste 0 -- -- 91
2020-03-17 23:00:00 7.8 8 Nordeste 18 Nordeste 0 -- -- 91
2020-03-17 22:00:00 7.6 9 Nordeste 19 Nordeste 0 -- -- 92
2020-03-17 21:00:00 8.2 9 Nordeste 23 Este 0 -- -- 88
2020-03-17 20:00:00 9 13 Este 24 Este 0 -- -- 88
2020-03-17 19:00:00 10 14 Nordeste 31 Este 0 -- -- 85
2020-03-17 18:00:00 11.2 17 Nordeste 26 Nordeste 0 -- -- 81
2020-03-17 17:00:00 10.2 15 Nordeste 30 Nordeste 0 -- -- 84
2020-03-17 16:00:00 10.6 19 Nordeste 35 Nordeste 0 -- -- 83
2020-03-17 15:00:00 10.2 19 Nordeste 39 Este 0 -- -- 82
2020-03-17 14:00:00 10.7 23 Este 37 Este 0 -- -- 80
2020-03-17 13:00:00 10 20 Este 41 Nordeste 0 -- -- 81
2020-03-17 12:00:00 10.4 23 Nordeste 40 Este 0 -- -- 80
2020-03-17 11:00:00 9.5 25 Nordeste 44 Este 0 -- -- 79
2020-03-17 10:00:00 8.1 21 Nordeste 37 Nordeste 0 -- -- 84
2020-03-17 09:00:00 7 17 Nordeste 37 Este 0 -- -- 88
2020-03-17 08:00:00 6.1 19 Nordeste 36 Nordeste 0 -- -- 88
2020-03-17 07:00:00 5.9 21 Nordeste 42 Nordeste 0 -- -- 87
2020-03-17 06:00:00 5.8 19 Nordeste 41 Nordeste 0 -- -- 87
2020-03-17 05:00:00 5.5 21 Nordeste 37 Nordeste 0 -- -- 88
2020-03-17 04:00:00 5.8 23 Nordeste 43 Nordeste 0 -- -- 85
2020-03-17 03:00:00 5.8 27 Nordeste 49 Nordeste 0 -- -- 83
2020-03-17 02:00:00 5.5 26 Nordeste 44 Nordeste 0 -- -- 84
2020-03-17 01:00:00 5.5 24 Nordeste 50 Nordeste 0 -- -- 84
2020-03-17 00:00:00 5.5 25 Nordeste 49 Nordeste 0 -- -- 83
2020-03-16 23:00:00 5.3 24 Nordeste 54 Nordeste 0 -- -- 82
2020-03-16 22:00:00 5.7 31 Nordeste 56 Nordeste 0 -- -- 80
2020-03-16 21:00:00 5.6 27 Nordeste 57 Nordeste 0 -- -- 83
2020-03-16 20:00:00 5.1 34 Nordeste 62 Nordeste 0 -- -- 84
2020-03-16 19:00:00 5.4 31 Nordeste 56 Nordeste 0 -- -- 82
2020-03-16 18:00:00 6 41 Nordeste 60 Nordeste 0 -- -- 79
2020-03-16 17:00:00 6.1 29 Nordeste 62 Nordeste 0 -- -- 76
2020-03-16 16:00:00 6 36 Nordeste 66 Nordeste 0 -- -- 77
2020-03-16 15:00:00 6.7 37 Nordeste 64 Nordeste 0 -- -- 75
2020-03-16 14:00:00 7.2 39 Nordeste 62 Nordeste 0 -- -- 77
2020-03-16 13:00:00 5.7 36 Nordeste 55 Nordeste 0 -- -- 81
2020-03-16 12:00:00 4.7 28 Nordeste 51 Nordeste 0 -- -- 82
2020-03-16 11:00:00 4.3 26 Nordeste 44 Nordeste 0 -- -- 85
2020-03-16 10:00:00 3.6 24 Nordeste 43 Norte 0 -- -- 89
2020-03-16 09:00:00 3.1 22 Nordeste 42 Nordeste 0.4 -- -- 89
2020-03-16 08:00:00 2.4 24 Nordeste 43 Nordeste 1 -- -- 89
2020-03-16 07:00:00 2.7 19 Nordeste 38 Nordeste 0.2 -- -- 87
2020-03-16 06:00:00 2 17 Nordeste 37 Nordeste 1 -- -- 92
2020-03-16 05:00:00 1.5 15 Nordeste 28 Nordeste 1.4 -- -- 92
2020-03-16 04:00:00 1.7 14 Nordeste 44 Nordeste 1.8 -- -- 90
2020-03-16 03:00:00 3.7 25 Nordeste 44 Nordeste 0 -- -- 78
2020-03-16 02:00:00 4 21 Nordeste 42 Nordeste 0 -- -- 77
2020-03-16 01:00:00 4.5 21 Nordeste 40 Nordeste 0 -- -- 76
2020-03-16 00:00:00 4.6 21 Nordeste 45 Nordeste 0 -- -- 75
2020-03-15 23:00:00 5.3 23 Nordeste 37 Nordeste 0 -- -- 75
2020-03-15 22:00:00 5.9 16 Nordeste 31 Nordeste 0 -- -- 78
2020-03-15 21:00:00 8.2 13 Nordeste 32 Nordeste 0 -- -- 76
2020-03-15 20:00:00 12.8 3 Noroeste 18 Oeste 0 -- -- 57
2020-03-15 19:00:00 14.7 12 Oeste 34 Oeste 0 -- -- 50
2020-03-15 18:00:00 15.7 8 Oeste 25 Oeste 0 -- -- 47
2020-03-15 17:00:00 15.2 8 Sudoeste 38 Oeste 0 -- -- 54
2020-03-15 16:00:00 18 15 Oeste 31 Oeste 0 -- -- 41
2020-03-15 15:00:00 18.8 17 Sudoeste 31 Sudoeste 0 -- -- 39
2020-03-15 14:00:00 18.5 15 Oeste 28 Sudoeste 0 -- -- 34
2020-03-15 13:00:00 17.5 14 Sudoeste 22 Sudoeste 0 -- -- 35
2020-03-15 12:00:00 15.4 10 Sudoeste 19 Oeste 0 -- -- 39
2020-03-15 11:00:00 11.8 5 Oeste 8 Oeste 0 -- -- 58
2020-03-15 10:00:00 7 3 Sudoeste 5 Sudoeste 0 -- -- 74
2020-03-15 09:00:00 0.8 0 Calma 3 Nordeste 0 -- -- 95
2020-03-15 08:00:00 -1.7 3 Nordeste 4 Este 0 -- -- 91
2020-03-15 07:00:00 -1.4 2 Oeste 4 Oeste 0 -- -- 92
2020-03-15 06:00:00 -1.9 0 Calma 3 Este 0 -- -- 91
2020-03-15 05:00:00 -1.2 0 Calma 2 Nordeste 0 -- -- 90
2020-03-15 04:00:00 -1 0 Calma 2 Este 0 -- -- 88
2020-03-15 03:00:00 -0.4 0 Calma 3 Noroeste 0 -- -- 85
2020-03-15 02:00:00 0.7 0 Calma 4 Este 0 -- -- 84
2020-03-15 01:00:00 1.8 3 Este 7 Este 0 -- -- 80
2020-03-15 00:00:00 3.4 5 Este 8 Este 0 -- -- 76
2020-03-14 23:00:00 4.1 5 Este 7 Este 0 -- -- 74
2020-03-14 22:00:00 5.5 4 Este 9 Este 0 -- -- 68
2020-03-14 21:00:00 5.9 3 Este 5 Nordeste 0 -- -- 66
2020-03-14 20:00:00 9.6 0 Calma 9 Sudeste 0 -- -- 57
2020-03-14 19:00:00 15 2 Nordeste 5 Norte 0 -- -- 39
2020-03-14 18:00:00 17.1 3 Este 8 Este 0 -- -- 29
2020-03-14 17:00:00 17.4 3 Noroeste 8 Noroeste 0 -- -- 29
2020-03-14 16:00:00 17.4 6 Oeste 13 Noroeste 0 -- -- 30
2020-03-14 15:00:00 16.3 4 Norte 16 Nordeste 0 -- -- 32
2020-03-14 14:00:00 15 6 Nordeste 14 Este 0 -- -- 42
2020-03-14 13:00:00 13.5 5 Nordeste 15 Nordeste 0 -- -- 49
2020-03-14 12:00:00 11.4 4 Este 12 Este 0 -- -- 62
2020-03-14 11:00:00 8.2 4 Este 10 Este 0 -- -- 70
2020-03-14 10:00:00 4.3 3 Nordeste 6 Nordeste 0 -- -- 86
2020-03-14 09:00:00 -0.1 2 Este 4 Este 0 -- -- 95
2020-03-14 08:00:00 -2.6 0 Calma 2 Oeste 0 -- -- 93
2020-03-14 07:00:00 -2.2 0 Calma 4 Sudoeste 0 -- -- 92
2020-03-14 06:00:00 -2.1 2 Noroeste 5 Norte 0 -- -- 93
2020-03-14 05:00:00 -1.9 0 Calma 5 Norte 0 -- -- 92
2020-03-14 04:00:00 -1.2 2 Este 5 Nordeste 0 -- -- 93
2020-03-14 03:00:00 -0.9 2 Nordeste 6 Nordeste 0 -- -- 92
2020-03-14 02:00:00 -0.3 2 Nordeste 5 Norte 0 -- -- 91
2020-03-14 01:00:00 0.3 2 Noroeste 6 Norte 0 -- -- 90
2020-03-14 00:00:00 1.1 3 Norte 11 Nordeste 0 -- -- 87
2020-03-13 23:00:00 2.7 9 Este 17 Este 0 -- -- 86
2020-03-13 22:00:00 3.5 3 Este 8 Noroeste 0 -- -- 86
2020-03-13 21:00:00 4.3 0 Calma 10 Nordeste 0 -- -- 84
2020-03-13 20:00:00 6 9 Nordeste 23 Este 0 -- -- 80
2020-03-13 19:00:00 8.1 16 Este 35 Nordeste 0 -- -- 75
2020-03-13 18:00:00 9.2 21 Nordeste 37 Nordeste 0 -- -- 73
2020-03-13 17:00:00 10.4 26 Nordeste 44 Nordeste 0 -- -- 70
2020-03-13 16:00:00 11.8 21 Nordeste 35 Nordeste 0 -- -- 68
2020-03-13 15:00:00 11.9 19 Nordeste 36 Nordeste 0 -- -- 67
2020-03-13 14:00:00 12.2 21 Nordeste 36 Nordeste 0 -- -- 69
2020-03-13 13:00:00 11.4 22 Nordeste 37 Nordeste 0 -- -- 71
2020-03-13 12:00:00 10.8 22 Nordeste 37 Nordeste 0 -- -- 71
2020-03-13 11:00:00 9.9 21 Nordeste 39 Nordeste 0 -- -- 74
2020-03-13 10:00:00 8.4 20 Nordeste 37 Este 0 -- -- 80
2020-03-13 09:00:00 7.4 17 Nordeste 36 Nordeste 0 -- -- 83
2020-03-13 08:00:00 6.9 16 Nordeste 33 Nordeste 0 -- -- 85
2020-03-13 07:00:00 7 18 Nordeste 31 Nordeste 0 -- -- 85
2020-03-13 06:00:00 7.2 18 Nordeste 40 Nordeste 0 -- -- 85
2020-03-13 05:00:00 7.5 22 Nordeste 39 Nordeste 0 -- -- 84
2020-03-13 04:00:00 7.7 18 Nordeste 38 Nordeste 0 -- -- 84
2020-03-13 03:00:00 7.9 21 Nordeste 35 Nordeste 0 -- -- 84
2020-03-13 02:00:00 7.8 18 Nordeste 36 Nordeste 0 -- -- 84
2020-03-13 01:00:00 7.8 18 Nordeste 36 Nordeste 0 -- -- 83
2020-03-13 00:00:00 7.6 16 Nordeste 31 Nordeste 0 -- -- 86
2020-03-12 23:00:00 8.4 20 Nordeste 40 Nordeste 0 -- -- 85
2020-03-12 22:00:00 8.7 21 Nordeste 41 Nordeste 0 -- -- 86
2020-03-12 21:00:00 8.7 24 Nordeste 40 Nordeste 0 -- -- 86
2020-03-12 20:00:00 10.1 23 Nordeste 45 Nordeste 0 -- -- 83
2020-03-12 19:00:00 10.5 18 Nordeste 39 Nordeste 0 -- -- 83
2020-03-12 18:00:00 12.2 20 Nordeste 42 Nordeste 0 -- -- 76
2020-03-12 17:00:00 13.7 21 Nordeste 33 Nordeste 0 -- -- 72
2020-03-12 16:00:00 14.7 21 Nordeste 35 Nordeste 0 -- -- 70
2020-03-12 15:00:00 14.6 21 Norte 32 Norte 0 -- -- 71
2020-03-12 14:00:00 17.4 13 Nordeste 19 Nordeste 0 -- -- 65
2020-03-12 13:00:00 17.8 8 Nordeste 19 Este 0 -- -- 60
2020-03-12 12:00:00 17.4 11 Nordeste 19 Norte 0 -- -- 63
2020-03-12 11:00:00 15.8 11 Nordeste 17 Nordeste 0 -- -- 68
2020-03-12 10:00:00 12.1 5 Nordeste 9 Nordeste 0 -- -- 76
2020-03-12 09:00:00 7.5 0 Calma 8 Oeste 0 -- -- 90
2020-03-12 08:00:00 5 0 Calma 3 Noroeste 0 -- -- 91
2020-03-12 07:00:00 5.5 0 Calma 3 Este 0 -- -- 89
2020-03-12 06:00:00 6.1 2 Nordeste 3 Nordeste 0 -- -- 88
2020-03-12 05:00:00 5.8 0 Calma 5 Nordeste 0 -- -- 89
2020-03-12 04:00:00 5.8 0 Calma 6 Este 0 -- -- 88
2020-03-12 03:00:00 7.1 4 Este 9 Este 0 -- -- 86
2020-03-12 02:00:00 6.2 3 Nordeste 5 Este 0 -- -- 86
2020-03-12 01:00:00 7.3 4 Este 5 Este 0 -- -- 84
2020-03-12 00:00:00 8.1 3 Nordeste 4 Noroeste 0 -- -- 79
2020-03-11 23:00:00 9.1 0 Calma 4 Este 0 -- -- 76
2020-03-11 22:00:00 10.5 4 Este 5 Este 0 -- -- 73
2020-03-11 21:00:00 11.3 0 Calma 4 Nordeste 0 -- -- 69
2020-03-11 20:00:00 13.8 0 Calma 3 Sudeste 0 -- -- 60
2020-03-11 19:00:00 19.4 3 Sur 13 Oeste 0 -- -- 43
2020-03-11 18:00:00 21.8 6 Oeste 21 Oeste 0 -- -- 34
2020-03-11 17:00:00 22.3 12 Oeste 21 Oeste 0 -- -- 32
2020-03-11 16:00:00 22.8 10 Oeste 22 Oeste 0 -- -- 29
2020-03-11 15:00:00 21.5 10 Oeste 22 Oeste 0 -- -- 34
2020-03-11 14:00:00 20 9 Sudoeste 15 Sudoeste 0 -- -- 46
2020-03-11 13:00:00 18.5 7 Oeste 13 Sudoeste 0 -- -- 47
2020-03-11 12:00:00 15.9 3 Oeste 8 Oeste 0 -- -- 54
2020-03-11 11:00:00 12.8 3 Sur 5 Sudoeste 0 -- -- 64
2020-03-11 10:00:00 9.3 0 Calma 5 Este 0 -- -- 80
2020-03-11 09:00:00 2.6 3 Este 6 Este 0 -- -- 97
2020-03-11 08:00:00 -0.3 2 Nordeste 4 Este 0 -- -- 92
2020-03-11 07:00:00 0.7 0 Calma 2 Oeste 0 -- -- 93
2020-03-11 06:00:00 1 2 Nordeste 5 Nordeste 0 -- -- 91
2020-03-11 05:00:00 1.2 3 Nordeste 5 Nordeste 0 -- -- 90
2020-03-11 04:00:00 1.7 0 Calma 4 Nordeste 0 -- -- 89
2020-03-11 03:00:00 2.4 3 Este 5 Nordeste 0 -- -- 90
2020-03-11 02:00:00 3.6 0 Calma 4 Este 0 -- -- 88
2020-03-11 01:00:00 4.9 0 Calma 4 Noroeste 0 -- -- 87
2020-03-11 00:00:00 5 0 Calma 3 Este 0 -- -- 87
2020-03-10 23:00:00 5.9 0 Calma 3 Sudoeste 0 -- -- 83
2020-03-10 22:00:00 7 0 Calma 7 Este 0 -- -- 82
2020-03-10 21:00:00 9.4 0 Calma 9 Nordeste 0 -- -- 75
2020-03-10 20:00:00 12.1 2 Nordeste 10 Sudoeste 0 -- -- 68
2020-03-10 19:00:00 17.1 6 Sudoeste 19 Oeste 0 -- -- 54
2020-03-10 18:00:00 18.9 15 Sudoeste 29 Sudoeste 0 -- -- 48
2020-03-10 17:00:00 19 16 Oeste 26 Oeste 0 -- -- 45
2020-03-10 16:00:00 19.1 17 Sudoeste 27 Sudoeste 0 -- -- 43
2020-03-10 15:00:00 18.4 8 Oeste 18 Oeste 0 -- -- 49
2020-03-10 14:00:00 17 10 Sudoeste 19 Oeste 0 -- -- 50
2020-03-10 13:00:00 15.4 10 Sudoeste 21 Sudoeste 0 -- -- 52
2020-03-10 12:00:00 13.4 8 Sudoeste 17 Sudoeste 0 -- -- 56
2020-03-10 11:00:00 9.9 5 Sudoeste 13 Sudoeste 0 -- -- 68
2020-03-10 10:00:00 7.4 3 Sudoeste 8 Sudoeste 0 -- -- 80
2020-03-10 09:00:00 4 0 Calma 6 Nordeste 0 -- -- 93
2020-03-10 08:00:00 2.5 0 Calma 5 Este 0 -- -- 91
2020-03-10 07:00:00 2.5 0 Calma 5 Oeste 0 -- -- 92
2020-03-10 06:00:00 2.1 0 Calma 3 Nordeste 0 -- -- 90
2020-03-10 05:00:00 3 0 Calma 3 Sudoeste 0 -- -- 89
2020-03-10 04:00:00 3.4 2 Nordeste 4 Este 0 -- -- 87
2020-03-10 03:00:00 4.2 2 Nordeste 4 Este 0 -- -- 85
2020-03-10 02:00:00 5 0 Calma 2 Noroeste 0 -- -- 82
2020-03-10 01:00:00 5.9 0 Calma 4 Sudeste 0 -- -- 77
2020-03-10 00:00:00 5.8 5 Sudeste 11 Este 0 -- -- 77
2020-03-09 23:00:00 5.5 3 Este 14 Este 0 -- -- 78
2020-03-09 22:00:00 6 4 Este 12 Nordeste 0 -- -- 76
2020-03-09 21:00:00 6.6 6 Este 9 Este 0 -- -- 73
2020-03-09 20:00:00 7.9 4 Este 8 Nordeste 0 -- -- 70
2020-03-09 19:00:00 11.8 3 Nordeste 5 Nordeste 0 -- -- 58
2020-03-09 18:00:00 13.8 0 Calma 9 Noroeste 0 -- -- 46
2020-03-09 17:00:00 13.8 4 Norte 15 Noroeste 0 -- -- 46
2020-03-09 16:00:00 13.6 4 Norte 13 Norte 0 -- -- 49
2020-03-09 15:00:00 12.8 4 Oeste 17 Noroeste 0 -- -- 49
2020-03-09 14:00:00 12 8 Noroeste 14 Noroeste 0 -- -- 55
2020-03-09 13:00:00 11.1 5 Noroeste 14 Noroeste 0 -- -- 59
2020-03-09 12:00:00 9.4 3 Norte 8 Noroeste 0 -- -- 68
2020-03-09 11:00:00 7.4 4 Noroeste 14 Sudoeste 0 -- -- 76
2020-03-09 10:00:00 5.1 8 Sudoeste 12 Sudoeste 0 -- -- 83
2020-03-09 09:00:00 1.2 0 Calma 4 Noroeste 0 -- -- 93
2020-03-09 08:00:00 0.5 0 Calma 5 Sur 0 -- -- 91
2020-03-09 07:00:00 1.3 0 Calma 5 Sudoeste 0 -- -- 90
2020-03-09 06:00:00 2.1 0 Calma 8 Sudoeste 0 -- -- 87
2020-03-09 05:00:00 3.4 5 Sudoeste 8 Sudoeste 0 -- -- 87
2020-03-09 04:00:00 3.6 0 Calma 10 Oeste 0 -- -- 85
2020-03-09 03:00:00 5 6 Sudoeste 14 Sudoeste 0 -- -- 80
2020-03-09 02:00:00 5.3 5 Sudoeste 14 Sudoeste 0 -- -- 80
2020-03-09 01:00:00 6 6 Sudoeste 10 Sudoeste 0 -- -- 81
2020-03-09 00:00:00 5.1 0 Calma 11 Sudoeste 0 -- -- 84
2020-03-08 23:00:00 6.5 8 Sudoeste 14 Sudoeste 0 -- -- 81
2020-03-08 22:00:00 8.4 5 Sudoeste 14 Sudoeste 0 -- -- 79
2020-03-08 21:00:00 9.2 10 Sudoeste 23 Sudoeste 0 -- -- 82
2020-03-08 20:00:00 9.5 8 Sudoeste 21 Oeste 0 -- -- 76
2020-03-08 19:00:00 11.6 12 Sudoeste 27 Sudoeste 0 -- -- 68
2020-03-08 18:00:00 12.6 15 Oeste 33 Sudoeste 0 -- -- 67
2020-03-08 17:00:00 12.8 17 Oeste 33 Oeste 0 -- -- 62
2020-03-08 16:00:00 13.4 16 Oeste 32 Oeste 0 -- -- 63
2020-03-08 15:00:00 11.4 17 Oeste 30 Oeste 0 -- -- 68
2020-03-08 14:00:00 11.1 15 Oeste 24 Sudoeste 0 -- -- 68
2020-03-08 13:00:00 10.2 15 Oeste 28 Oeste 0 -- -- 70
2020-03-08 12:00:00 9.4 9 Sudoeste 19 Oeste 0 -- -- 76
2020-03-08 11:00:00 7 10 Sudoeste 19 Sudoeste 0 -- -- 82
2020-03-08 10:00:00 5.8 8 Sudoeste 14 Sudoeste 0 -- -- 85
2020-03-08 09:00:00 4 6 Sudoeste 13 Sudoeste 0 -- -- 88
2020-03-08 08:00:00 2.7 5 Oeste 10 Sudoeste 0 -- -- 90
2020-03-08 07:00:00 2.6 3 Oeste 12 Sudoeste 0 -- -- 88
2020-03-08 06:00:00 3 6 Sudoeste 12 Sur 0 -- -- 88
2020-03-08 05:00:00 2.3 3 Oeste 8 Oeste 0 -- -- 88
2020-03-08 04:00:00 3.3 5 Sudoeste 12 Sudoeste 0 -- -- 87
2020-03-08 03:00:00 3.7 3 Sudoeste 13 Sudoeste 0 -- -- 83
2020-03-08 02:00:00 3.6 4 Sudoeste 13 Sudoeste 0 -- -- 85
2020-03-08 01:00:00 3.1 4 Oeste 8 Oeste 0 -- -- 87
2020-03-08 00:00:00 2.9 4 Oeste 8 Sudoeste 0 -- -- 88